Tiempo atmosférico en la estación meteorológica de Palma Aeropuerto, Illes Balears (8 m.)



Fecha
DESCASC
Temp. máxima en grados centígrados (hora)
DESCASC
Temp. mínima en grados centígrados (hora)
DESCASC
Temp. media en grados centígrados
DESCASC
Racha de viento máxima en m/sg (hora)
DESCASC
Velocidad máxima media en intervalos de 10 minutos(hora)
DESCASC
Precipitaciones diarias en mm
DESCASC
Precipitaciones de 00:00 a 06:00 en mm
DESCASC
Precipitaciones de 06:00 a 12:00 en mm
DESCASC
Precipitaciones de 12:00 a 18:00 en mm
DESCASC
Precipitaciones de 18:00 a 24:00 en mm
DESCASC

Gráficas

Temp. máximas Temp. mínimas Temp. medias Precipitaciones Rachas de viento máximas Velocidades máximas media en intervalos de 10 minutos

Datos horarios

Fecha y hora oficial Temperatura (ºC) Velocidad del viento (km/h) Dirección del viento Racha (km/h) Dirección de racha Precipitación (mm) Presión (hPa) Tendencia (hPa) Humedad (%)
2020-04-07 23:00:00 14.2 6 Este 8 Este 0 1026.5 1.2 72
2020-04-07 22:00:00 15.1 5 Oeste 11 Sudoeste 0 1026.3 1.1 68
2020-04-07 21:00:00 15.5 7 Oeste 13 Sudoeste 0 1025.8 0.6 55
2020-04-07 20:00:00 16.1 9 Sudoeste 22 Sudoeste 0 1025.3 0.2 56
2020-04-07 19:00:00 16.7 18 Sudoeste 28 Sudoeste 0 1025.2 -0.1 55
2020-04-07 18:00:00 17.9 23 Sudoeste 33 Sudoeste 0 1025.2 -0.6 52
2020-04-07 17:00:00 18.7 25 Sudoeste 32 Sudoeste 0 1025.1 -0.9 45
2020-04-07 16:00:00 18.9 25 Sudoeste 35 Sudoeste 0 1025.3 -0.8 51
2020-04-07 15:00:00 18.6 26 Sudoeste 33 Sudoeste 0 1025.8 -0.7 55
2020-04-07 14:00:00 19.2 22 Sudoeste 30 Sudoeste 0 1026 -0.6 53
2020-04-07 13:00:00 19.3 14 Este 22 Este 0 1026.1 -0.1 44
2020-04-07 12:00:00 18.3 15 Este 28 Nordeste 0 1026.5 0.2 43
2020-04-07 11:00:00 16.4 13 Este 18 Este 0 1026.6 0.7 59
2020-04-07 10:00:00 14 12 Este 17 Este 0 1026.2 0.7 64
2020-04-07 09:00:00 10.2 4 Norte 9 Nordeste 0 1026.3 1.3 73
2020-04-07 08:00:00 7.7 4 Norte 9 Este 0 1025.9 0.7 79
2020-04-07 07:00:00 8.6 6 Norte 11 Noroeste 0 1025.5 -0.1 69
2020-04-07 06:00:00 8.8 5 Nordeste 11 Este 0 1025 -0.8 77
2020-04-07 05:00:00 9.3 4 Nordeste -- -- 0 1025.2 -0.8 76
2020-04-07 04:00:00 8.8 0 Calma -- -- 0 1025.6 -0.1 83
2020-04-07 03:00:00 8.9 -- -- -- -- 0 1025.8 0.1 84
2020-04-07 02:00:00 9.6 3 Nordeste 8 Nordeste 0 1026 0.2 82
2020-04-07 01:00:00 9.8 4 Nordeste 9 Este 0 1025.7 0 80
2020-04-07 00:00:00 -- 8 Este 9 Nordeste 0 1025.7 0.8 --
2020-04-06 23:00:00 11.1 3 Este -- -- 0 1025.8 1.7 74
2020-04-06 22:00:00 12.4 5 Este 9 Este 0 1025.7 1.9 67
2020-04-06 21:00:00 15.4 8 Sur 13 Sur 0 1024.9 0.9 54
2020-04-06 20:00:00 16.4 10 Sur 22 Sudoeste 0 1024.1 0.2 45
2020-04-06 19:00:00 17.3 16 Sudoeste 26 Sudoeste 0 1023.8 -0.4 45
2020-04-06 18:00:00 18.3 20 Sudoeste 28 Sudoeste 0 1024 -0.3 46
2020-04-06 17:00:00 18.8 21 Sudoeste 30 Sudoeste 0 1023.9 -0.4 46
2020-04-06 16:00:00 18.9 25 Sudoeste 32 Sudoeste 0 1024.2 0 43
2020-04-06 15:00:00 19.5 22 Sudoeste 32 Sudoeste 0 1024.3 0.2 38
2020-04-06 14:00:00 19.3 23 Sudoeste 30 Sudoeste 0 1024.3 0.4 39
2020-04-06 13:00:00 18.6 18 Sudoeste 26 Oeste 0 1024.2 1.1 46
2020-04-06 12:00:00 18.6 10 Sur 18 Sur 0 1024.1 1.4 41
2020-04-06 11:00:00 17.2 3 Noroeste 13 Nordeste 0 1023.9 1.8 59
2020-04-06 10:00:00 15 5 Nordeste 9 Nordeste 0 1023.1 1.3 70
2020-04-06 09:00:00 10.5 4 Nordeste 9 Nordeste 0 1022.7 1.1 80
2020-04-06 08:00:00 5.9 7 Nordeste 9 Nordeste 0 1022.1 0.9 92
2020-04-06 07:00:00 7.1 5 Nordeste -- -- 0 1021.8 0.6 85
2020-04-06 06:00:00 7.5 4 Norte 8 Norte 0 1021.6 0.2 89
2020-04-06 05:00:00 7.9 5 Norte 9 Norte 0 1021.2 -0.4 89
2020-04-06 04:00:00 8.2 4 Norte -- -- 0 1021.2 -0.1 91
2020-04-06 03:00:00 9.6 5 Nordeste 8 Nordeste 0 1021.4 0.1 88
2020-04-06 02:00:00 9.8 3 Nordeste 5 Noroeste 0 1021.6 0.7 87
2020-04-06 01:00:00 9.7 5 Norte 9 Norte 0 1021.3 0.9 85
2020-04-06 00:00:00 9.7 9 Noroeste 11 Noroeste 0 1021.3 1.5 87
2020-04-05 23:00:00 10.5 -- -- -- -- 0 1020.9 1.2 87
2020-04-05 22:00:00 12.6 3 Este -- -- 0 1020.4 0.9 79
2020-04-05 21:00:00 14.3 3 Sur 13 Sudoeste 0 1019.8 0.5 71
2020-04-05 20:00:00 15.4 10 Sudoeste 21 Sudoeste 0 1019.7 0.2 66
2020-04-05 19:00:00 15.8 15 Oeste 26 Sudoeste 0 1019.5 -0.2 63
2020-04-05 18:00:00 16.3 19 Sudoeste 26 Sudoeste 0 1019.3 -0.7 63
2020-04-05 17:00:00 16.6 19 Sudoeste 30 Sudoeste 0 1019.5 -1 62
2020-04-05 16:00:00 17.4 23 Sudoeste 33 Sudoeste 0 1019.7 -1.2 60
2020-04-05 15:00:00 18.3 19 Sudoeste 26 Sudoeste 0 1020 -1.1 53
2020-04-05 14:00:00 18.1 16 Sudoeste 22 Sudoeste 0 1020.5 -0.7 52
2020-04-05 13:00:00 17.8 17 Sudoeste 26 Sudoeste 0 1020.9 -0.2 50
2020-04-05 12:00:00 17.6 9 Nordeste 21 Nordeste 0 1021.1 0.1 33
2020-04-05 11:00:00 16.3 10 Este 15 Este 0 1021.2 0.8 52
2020-04-05 10:00:00 13.3 3 Sudeste 5 Este 0 1021.1 1.6 66
2020-04-05 09:00:00 9.9 2 Este 5 Este 0 1021 1.5 71
2020-04-05 08:00:00 5.6 4 Este 5 Nordeste 0 1020.4 0.7 94
2020-04-05 07:00:00 5.2 4 Nordeste 8 Norte 0 1019.5 -0.6 94
2020-04-05 06:00:00 5 4 Norte -- -- 0 1019.5 -1 94
2020-04-05 05:00:00 5.7 4 Nordeste 8 Nordeste 0 1019.7 -1.3 94
2020-04-05 04:00:00 6.5 -- -- -- -- 0 1020.1 -1.1 94
2020-04-05 03:00:00 6.7 4 Nordeste 8 Este 0 1020.5 -0.5 94
2020-04-05 02:00:00 7.5 7 Este 9 Nordeste 0 1021 0.2 91
2020-04-05 01:00:00 9 3 Nordeste 8 Norte 0 1021.2 0.6 92
2020-04-05 00:00:00 9.4 5 Nordeste 13 Este 0 1021 0.9 91
2020-04-04 23:00:00 10.6 10 Este 13 Este 0 1020.8 1.4 88
2020-04-04 22:00:00 12.2 7 Este 9 Este 0 1020.6 1.1 83
2020-04-04 21:00:00 14.1 9 Oeste 13 Sudoeste 0 1020.1 0.9 76
2020-04-04 20:00:00 15.7 10 Sudoeste 21 Oeste 0 1019.4 0.2 68
2020-04-04 19:00:00 16.6 15 Sudoeste 26 Sudoeste 0 1019.5 -0.2 63
2020-04-04 18:00:00 17.4 19 Sudoeste 30 Sudoeste 0 1019.2 -0.6 61
2020-04-04 17:00:00 18 22 Sudoeste 30 Sudoeste 0 1019.2 -0.7 57
2020-04-04 16:00:00 17.9 19 Sur 30 Sur 0 1019.7 -0.5 57
2020-04-04 15:00:00 18.2 19 Sudoeste 28 Sudoeste 0 1019.8 -0.6 52
2020-04-04 14:00:00 17.9 21 Sudoeste 30 Sudoeste 0 1019.9 -0.4 58
2020-04-04 13:00:00 18 19 Sudoeste 28 Sudoeste 0 1020.2 0.1 60
2020-04-04 12:00:00 17.4 12 Sudoeste 18 Sudoeste 0 1020.4 0.7 60
2020-04-04 11:00:00 16.8 3 Sudoeste 8 Sudoeste 0 1020.3 1.1 61
2020-04-04 10:00:00 13.6 2 Este 5 Nordeste 0 1020.1 1.3 66
2020-04-04 09:00:00 8.3 3 Este 5 Este 0 1019.7 1.3 84
2020-04-04 08:00:00 4.6 4 Nordeste 5 Norte 0 1019.2 0.6 94
2020-04-04 07:00:00 4.4 2 Nordeste 5 Este 0 1018.8 0.2 94
2020-04-04 06:00:00 4.5 2 Este 8 Este 0 1018.4 -0.4 93
2020-04-04 05:00:00 5 5 Este 8 Este 0 1018.6 -0.4 93
2020-04-04 04:00:00 5.5 6 Este 8 Este 0 1018.6 -0.4 91
2020-04-04 03:00:00 5.8 6 Nordeste 8 Nordeste 0 1018.8 0.2 92
2020-04-04 02:00:00 6.3 5 Nordeste 9 Nordeste 0 1019 0.8 91
2020-04-04 01:00:00 7.3 -- -- -- -- 0 1019 1.3 90
2020-04-04 00:00:00 8.5 5 Nordeste 9 Norte 0 1018.6 1.8 82
2020-04-03 23:00:00 9.7 2 Nordeste 5 Nordeste 0 1018.2 1.9 76
2020-04-03 22:00:00 11.2 4 Norte 8 Nordeste 0 1017.7 2 70
2020-04-03 21:00:00 12.9 4 Nordeste 18 Este 0 1016.8 1.4 62
2020-04-03 20:00:00 14.8 8 Este 26 Este 0 1016.3 1 55
2020-04-03 19:00:00 16.6 19 Este 32 Este 0 1015.7 0.7 43
2020-04-03 18:00:00 17.2 22 Este 32 Este 0 1015.4 0.4 45
2020-04-03 17:00:00 17 19 Nordeste 37 Este 0 1015.3 0.2 53
2020-04-03 16:00:00 17.1 21 Nordeste 37 Nordeste 0 1015 0 53
2020-04-03 15:00:00 17.1 26 Nordeste 39 Nordeste 0 1015 0.2 52
2020-04-03 14:00:00 17.1 25 Nordeste 42 Nordeste 0 1015.1 0.8 53
2020-04-03 13:00:00 16.7 32 Nordeste 50 Nordeste 0 1015 1.5 53
2020-04-03 12:00:00 16.2 32 Nordeste 45 Nordeste 0 1014.8 2.1 53
2020-04-03 11:00:00 15.1 30 Nordeste -- -- -- 1014.3 2.3 58
2020-04-03 10:00:00 14.9 26 Nordeste 39 Nordeste 0 1013.5 2.2 62
2020-04-03 09:00:00 13.8 20 Nordeste 32 Nordeste 0 1012.7 1.8 67
2020-04-03 08:00:00 12.4 16 Nordeste 32 Nordeste 0 1012 1.4 71
2020-04-03 07:00:00 12.7 22 Nordeste 30 Nordeste 0 1011.3 0.7 70
2020-04-03 06:00:00 11.5 13 Nordeste 21 Nordeste 0 1010.9 0.5 76
2020-04-03 05:00:00 12.4 13 Nordeste 18 Nordeste 0 1010.6 -0.2 82
2020-04-03 04:00:00 12 9 Nordeste 17 Norte 0 1010.6 -0.4 88
2020-04-03 03:00:00 11.7 6 Norte 11 Nordeste 0 1010.4 -0.6 88
2020-04-03 02:00:00 12 5 Norte 13 Nordeste 0 1010.8 0 88
2020-04-03 01:00:00 12 12 Nordeste 28 Nordeste 0 1011 0.6 88
2020-04-03 00:00:00 12.5 18 Nordeste 24 Nordeste 0 1011 1.2 88
2020-04-02 23:00:00 12.5 13 Nordeste 30 Nordeste 1 1010.8 1.6 92
2020-04-02 22:00:00 13 17 Este 22 Nordeste 0 1010.4 1.6 90
2020-04-02 21:00:00 13.3 13 Nordeste 24 Nordeste 0.1 1009.8 1.7 87
2020-04-02 20:00:00 13.7 14 Nordeste 30 Nordeste 0 1009.2 1.4 86
2020-04-02 19:00:00 14.1 19 Nordeste 42 Este 0 1008.8 0.7 82
2020-04-02 18:00:00 14.7 25 Este 35 Este 0 1008.1 -0.2 72
2020-04-02 17:00:00 16.3 17 Este 26 Este 0 1007.8 -0.1 67
2020-04-02 16:00:00 15.4 6 Nordeste 13 Nordeste 0 1008.1 0.2 72
2020-04-02 15:00:00 15.1 11 Este 28 Este 0 1008.3 0.2 72
2020-04-02 14:00:00 16.8 17 Este 26 Este 0 1007.9 -0.3 68
2020-04-02 13:00:00 18.4 5 Sudoeste 13 Oeste 0 1007.9 0.1 60
2020-04-02 12:00:00 16.3 6 Sudeste 11 Este 0 1008.1 0.6 78
2020-04-02 11:00:00 15.1 8 Sudeste 9 Sudeste 0 1008.2 0.5 88
2020-04-02 10:00:00 14.3 6 Nordeste 9 Este 0 1007.8 0 91
2020-04-02 09:00:00 14.1 4 Norte 9 Nordeste 0 1007.5 -0.6 92
2020-04-02 08:00:00 12.5 6 Nordeste 9 Nordeste 0 1007.7 -0.7 96
2020-04-02 07:00:00 12.8 9 Este 13 Sudeste 0 1007.8 -1.3 96
2020-04-02 06:00:00 12.6 6 Este 8 Este 0.3 1008.1 -1.6 96
2020-04-02 05:00:00 12.6 5 Norte 11 Sudeste 0 1008.4 -1.9 92
2020-04-02 04:00:00 14 8 Sudoeste 13 Sudoeste 0 1009.1 -1.5 92
2020-04-02 03:00:00 15 12 Sudoeste 22 Sudoeste 0 1009.7 -1.4 89
2020-04-02 02:00:00 15.3 12 Sudoeste 18 Sudoeste 0 1010.3 -0.6 89
2020-04-02 01:00:00 15.3 10 Sudoeste 15 Sudoeste 0 1010.6 -0.6 89
2020-04-02 00:00:00 15.4 11 Sudoeste 18 Sur 0 1011.1 0.4 89
2020-04-01 23:00:00 15.5 13 Sudoeste 26 Sudoeste 0 1010.9 0.5 89
2020-04-01 22:00:00 15.8 15 Sudoeste 24 Sudoeste 0 1011.2 1.1 88
2020-04-01 21:00:00 15.7 15 Sur 22 Sudoeste 0 1010.7 0.7 85
2020-04-01 20:00:00 16 18 Sudoeste 28 Sudoeste 0 1010.4 0.4 84
2020-04-01 19:00:00 16.4 20 Sudoeste 30 Sudoeste 0 1010.1 -0.1 80
2020-04-01 18:00:00 16.6 22 Sudoeste 37 Sudoeste 0 1010 -0.3 79
2020-04-01 17:00:00 17.1 25 Sudoeste 33 Sudoeste 0 1010 -0.8 76
2020-04-01 16:00:00 18.2 26 Sudoeste 35 Sudoeste 0 1010.2 -0.5 74
2020-04-01 15:00:00 18 17 Sudoeste 30 Sudoeste 0 1010.3 -0.7 74
2020-04-01 14:00:00 17.9 21 Sudoeste 39 Sudoeste 0 1010.8 -0.6 78
2020-04-01 13:00:00 17.9 33 Sudoeste 42 Sudoeste 0 1010.7 -0.6 81
2020-04-01 12:00:00 18.7 14 Sudeste 24 Sudeste 0 1011 -0.1 71
2020-04-01 11:00:00 17.3 16 Sudeste 26 Este 0 1011.4 0.2 76
2020-04-01 10:00:00 15.5 14 Este 21 Nordeste 0 1011.3 0.8 85
2020-04-01 09:00:00 14.7 15 Este 22 Este 0 1011.1 0.3 86
2020-04-01 08:00:00 13.8 12 Nordeste 24 Este 0 1011.2 0.1 88
2020-04-01 07:00:00 14 21 Nordeste 28 Nordeste 0 1010.5 -1 87
2020-04-01 06:00:00 14 18 Este 30 Este 0 1010.8 -0.6 86
2020-04-01 05:00:00 14.5 21 Nordeste 28 Este 0 1011.1 -0.3 83
2020-04-01 04:00:00 14.7 18 Este 28 Nordeste 0 1011.5 0 84
2020-04-01 03:00:00 14.8 17 Este 28 Este 0 1011.4 -0.2 86
2020-04-01 02:00:00 14.8 17 Este 28 Este 0 1011.4 -0.3 87
2020-04-01 01:00:00 14.8 19 Este 28 Nordeste 0 1011.5 0.5 87
2020-04-01 00:00:00 14.8 22 Nordeste 28 Nordeste 0 1011.6 1.6 86
2020-03-31 23:00:00 14.8 19 Nordeste 32 Este 0 1011.7 2.1 87
2020-03-31 22:00:00 14.7 23 Este 39 Nordeste 0 1011 1.7 87
2020-03-31 21:00:00 14.6 26 Nordeste 35 Nordeste 0 1010 1 88
2020-03-31 20:00:00 15.2 22 Este 37 Nordeste 0 1009.6 0.6 88
2020-03-31 19:00:00 15.9 28 Nordeste 39 Este 0 1009.3 -0.3 86
2020-03-31 18:00:00 15.8 29 Nordeste 39 Nordeste 0 1009 -0.6 86
2020-03-31 17:00:00 15.7 26 Nordeste 37 Este 0.3 1009 -0.7 88
2020-03-31 16:00:00 15 19 Este 35 Este 3.1 1009.6 -0.3 90
2020-03-31 15:00:00 16.1 25 Este 39 Este 0.1 1009.6 -0.9 81
2020-03-31 14:00:00 17.3 29 Este 45 Este 0 1009.7 -0.7 70
2020-03-31 13:00:00 16.5 35 Este 46 Nordeste 0 1009.9 -0.4 73
2020-03-31 12:00:00 16.1 30 Este 54 Este 0 1010.5 0.7 73
2020-03-31 11:00:00 16 38 Este 52 Este 0 1010.4 0.2 72
2020-03-31 10:00:00 15.4 31 Nordeste 46 Este 0 1010.3 0.4 77
2020-03-31 09:00:00 14.3 27 Nordeste 42 Nordeste 0 1009.8 -0.3 81
2020-03-31 08:00:00 13.6 27 Nordeste 39 Este 0 1010.2 0.1 86
2020-03-31 07:00:00 13.2 25 Nordeste 35 Nordeste 0 1009.9 -1.3 86
2020-03-31 06:00:00 13.4 24 Nordeste 33 Nordeste 0 1010.1 -1.5 84
2020-03-31 05:00:00 13.8 27 Nordeste 35 Este 0 1010.1 -1.9 84
2020-03-31 04:00:00 13.4 14 Nordeste 26 Nordeste 0 1011.2 -0.9 86
2020-03-31 03:00:00 13.2 13 Este 18 Nordeste 0 1011.6 -0.6 87
2020-03-31 02:00:00 12.4 9 Este 17 Nordeste 0 1012 -0.5 89
2020-03-31 01:00:00 13.2 12 Este 18 Nordeste 0 1012.1 -0.3 85
2020-03-31 00:00:00 12.6 10 Nordeste 13 Nordeste 0 1012.2 0.3 86
2020-03-30 23:00:00 12.2 5 Nordeste 9 Este 0 1012.5 1.2 90
2020-03-30 22:00:00 12.9 0 Calma -- -- 0 1012.4 1.2 89
2020-03-30 21:00:00 14.4 6 Este 15 Sur 0 1011.9 0.5 83
2020-03-30 20:00:00 15.1 13 Sudoeste 18 Sudoeste 0 1011.3 0 79
2020-03-30 19:00:00 16.4 14 Sudoeste 21 Sudoeste 0 1011.2 -0.4 73
2020-03-30 18:00:00 16.8 17 Sudoeste 26 Sudoeste 0 1011.4 -0.4 71
2020-03-30 17:00:00 17.4 18 Sudoeste 28 Sur 0 1011.3 -0.7 70
2020-03-30 16:00:00 18 18 Sudoeste 32 Sur 0 1011.6 -0.8 69
2020-03-30 15:00:00 18.3 24 Sudoeste 33 Sur 0 1011.8 -1 68
2020-03-30 14:00:00 18.1 25 Sudoeste 35 Sur 0 1012 -0.7 70
2020-03-30 13:00:00 17.8 24 Sudoeste 32 Sudoeste 0 1012.4 -0.1 72
2020-03-30 12:00:00 16.1 21 Sudoeste 28 Sur 0 1012.8 0.3 79
2020-03-30 11:00:00 15.8 14 Sur 21 Sur 0 1012.7 0.2 80
2020-03-30 10:00:00 12.9 8 Este 11 Este 0.1 1012.5 0.3 96
2020-03-30 09:00:00 9.9 4 Nordeste 8 Norte 0 1012.5 0.2 96
2020-03-30 08:00:00 7.6 3 Norte 9 Norte 0 1012.5 -0.2 96
2020-03-30 07:00:00 7.4 4 Nordeste 8 Nordeste 0 1012.2 -1 96
2020-03-30 06:00:00 7.3 5 Norte 11 Norte 0 1012.3 -1.6 96
2020-03-30 05:00:00 6.8 4 Norte 8 Norte 0 1012.7 -1.4 96
2020-03-30 04:00:00 7.1 4 Norte 8 Norte 0 1013.2 -1.3 96
2020-03-30 03:00:00 7.5 4 Noroeste 5 Noroeste 0 1013.9 -0.8 96
2020-03-30 02:00:00 7.9 4 Este -- -- 0 1014.1 -0.8 95
2020-03-30 01:00:00 8.7 4 Nordeste -- -- 0 1014.5 -0.2 94
2020-03-30 00:00:00 10 5 Este -- -- 0 1014.7 0.3 92
2020-03-29 23:00:00 10.8 7 Este 8 Este 0 1014.9 1 88
2020-03-29 22:00:00 13.7 3 Sudoeste 18 Sudoeste 0 1014.7 1 83
2020-03-29 21:00:00 14.1 15 Sudoeste 24 Oeste 0 1014.4 0.9 80
2020-03-29 20:00:00 15.4 20 Oeste 35 Sudoeste 0 1013.9 0.2 68
2020-03-29 19:00:00 16.4 31 Sudoeste 41 Sudoeste 0 1013.7 -0.7 70
2020-03-29 18:00:00 18.1 33 Sudoeste 41 Sudoeste 0 1013.5 -1.3 56
2020-03-29 17:00:00 18.9 29 Sudoeste 41 Sudoeste 0 1013.7 -1.6 53
2020-03-29 16:00:00 19.3 28 Sudoeste 35 Sudoeste 0 1014.4 -1.4 52
2020-03-29 15:00:00 19.4 24 Sudoeste 30 Sudoeste 0 1014.8 -1.4 48
2020-03-29 14:00:00 19.4 21 Sudoeste 28 Sudoeste 0 1015.3 -0.9 49
2020-03-29 13:00:00 18.1 15 Sudoeste 22 Sudoeste 0 1015.8 -0.4 48
2020-03-29 12:00:00 17 9 Sur 15 Sudoeste 0 1016.2 0.2 61
2020-03-29 11:00:00 15.3 5 Sur 9 Sur 0 1016.2 0.2 66
2020-03-29 10:00:00 11.8 0 Calma 8 Este 0 1016.2 0.4 78
2020-03-29 09:00:00 7 6 Nordeste 9 Este 0 1016 0.2 93
2020-03-29 08:00:00 5.1 5 Este 8 Este 0 1016 -0.2 95
2020-03-29 07:00:00 5.8 3 Este 5 Este 0 1015.8 -0.9 96
2020-03-29 06:00:00 6.7 5 Este 9 Este 0 1015.8 -1.4 95
2020-03-29 05:00:00 7.4 4 Nordeste 5 Nordeste 0 1016.2 -1.1 92
2020-03-29 03:00:00 9.2 5 Este -- -- 0 1017.2 -0.2 93
2020-03-29 01:00:00 10.4 7 Sudeste 11 Sudeste 0 1017.3 -0.1 89
2020-03-29 00:00:00 10.5 4 Norte -- -- 0 1017.6 0.6 91
2020-03-28 23:00:00 11.3 4 Este 5 Este 0 1017.4 0.7 87
2020-03-28 22:00:00 11.8 -- -- -- -- 0 1017.4 1.2 84
2020-03-28 21:00:00 12.4 3 Nordeste 8 Sudeste 0 1017 1.2 82
2020-03-28 20:00:00 12.9 7 Este 9 Este 0 1016.7 1.2 80
2020-03-28 19:00:00 13.7 9 Sudoeste 13 Sudoeste 0 1016.2 0.8 73
2020-03-28 18:00:00 14.7 12 Oeste 18 Oeste 0 1015.8 0.3 68
2020-03-28 17:00:00 15.6 14 Sudoeste 24 Sudoeste 0 1015.5 -0.1 62
2020-03-28 16:00:00 15.9 15 Sudoeste 26 Sudoeste 0 1015.4 -0.7 59
2020-03-28 15:00:00 16.6 17 Este 28 Este 0 1015.5 -0.8 54
2020-03-28 14:00:00 16.5 14 Nordeste 22 Nordeste 0 1015.6 -0.8 50
2020-03-28 13:00:00 16 15 Este 24 Este 0 1016.1 -0.2 53
2020-03-28 12:00:00 15.2 6 Este 15 Norte 0 1016.3 0.5 60
2020-03-28 11:00:00 12.6 10 Norte 15 Norte 0 1016.4 1.1 79
2020-03-28 10:00:00 10.6 6 Nordeste 11 Nordeste 0 1016.3 1.3 86
2020-03-28 09:00:00 7.9 3 Este 8 Este 0 1015.8 1.3 91
2020-03-28 08:00:00 5.1 6 Este 9 Nordeste 0 1015.3 0.8 95
2020-03-28 07:00:00 3.7 0 Calma 8 Este 0 1015 0.2 94
2020-03-28 06:00:00 4.2 6 Norte 9 Norte 0 1014.5 -0.5 95
2020-03-28 05:00:00 4.8 3 Este -- -- 0 1014.5 -1 94
2020-03-28 04:00:00 5.7 2 Nordeste 13 Noroeste 0 1014.8 -0.6 87
2020-03-28 03:00:00 5.5 11 Norte 15 Norte 0 1015 -0.4 91
2020-03-28 02:00:00 4.5 5 Norte 9 Norte 0 1015.5 0.3 92
2020-03-28 01:00:00 5.4 4 Norte 9 Norte 0 1015.4 0.5 90
2020-03-28 00:00:00 6.8 0 Calma 9 Este 0 1015.4 1 89
2020-03-27 23:00:00 7.7 5 Este 8 Este 0 1015.2 1.5 85
2020-03-27 22:00:00 7.9 4 Nordeste 13 Este 0 1014.9 1.8 85
2020-03-27 21:00:00 9.3 7 Este 22 Este 0 1014.4 1.7 78
2020-03-27 20:00:00 10.6 11 Este 21 Este 0 1013.7 1.3 65
2020-03-27 19:00:00 13.2 14 Este 21 Este 0 1013.1 0.6 49
2020-03-27 18:00:00 14.4 13 Sudoeste 21 Sudoeste 0 1012.7 -0.1 47
2020-03-27 17:00:00 14.9 12 Sudoeste 18 Sur 0 1012.4 -0.4 45
2020-03-27 16:00:00 14.7 13 Sudoeste 33 Oeste 0 1012.5 -0.1 45
2020-03-27 15:00:00 15 23 Sudoeste 33 Sudoeste 0 1012.8 -0.2 45
2020-03-27 14:00:00 14.8 17 Oeste 28 Noroeste 0 1012.8 -0.3 46
2020-03-27 13:00:00 15 9 Noroeste 21 Oeste 0 1012.6 -0.4 41
2020-03-27 12:00:00 14.4 9 Nordeste 21 Este 0 1013 0.6 42
2020-03-27 11:00:00 13.5 12 Nordeste 24 Este 0 1013.1 0.7 45
2020-03-27 10:00:00 12.8 5 Este 13 Este 0 1013 1 51
2020-03-27 09:00:00 9.4 0 Calma 5 Este 0 1012.4 0.6 75
2020-03-27 08:00:00 5.3 3 Nordeste 8 Norte 0 1012.4 0.9 90
2020-03-27 07:00:00 2.9 5 Noroeste 9 Norte 0 1012 0.7 96
2020-03-27 06:00:00 3.6 6 Norte 9 Norte 0 1011.8 0.7 96
2020-03-27 05:00:00 4.3 4 Norte -- -- 0 1011.5 0.4 96
2020-03-27 04:00:00 5 0 Calma -- -- 0 1011.3 0.4 96
2020-03-27 03:00:00 5.1 2 Sudoeste 8 Este 0 1011.1 0.3 96
2020-03-27 02:00:00 6.5 3 Nordeste 9 Nordeste 0 1011.1 0.3 92
2020-03-27 01:00:00 7.5 5 Nordeste 13 Este 0 1010.9 0.6 90
2020-03-27 00:00:00 8 4 Nordeste 15 Nordeste 0 1010.8 1.1 90
2020-03-26 23:00:00 8 12 Nordeste 28 Nordeste 0 1010.8 2.1 90
2020-03-26 22:00:00 8.2 23 Nordeste 33 Nordeste 0.1 1010.3 2.2 85
2020-03-26 21:00:00 8.4 10 Nordeste 15 Este 0.2 1009.7 2.1 86
2020-03-26 20:00:00 9.5 10 Norte 17 Norte 0 1008.7 1.4 71
2020-03-26 19:00:00 9.2 10 Norte 21 Nordeste 0 1008.1 1.2 72
2020-03-26 18:00:00 9.3 13 Nordeste 22 Nordeste 0 1007.6 1 74
2020-03-26 17:00:00 9.2 15 Nordeste 37 Este 0 1007.3 0.6 75
2020-03-26 16:00:00 9 27 Nordeste 45 Nordeste 0 1006.9 0.1 80
2020-03-26 15:00:00 10.3 31 Este 42 Este 0 1006.6 -0.1 78
2020-03-26 14:00:00 9.8 24 Este 41 Este 0 1006.7 0.1 82
2020-03-26 13:00:00 10.1 22 Nordeste 30 Nordeste 0 1006.8 -1.1 79
2020-03-26 12:00:00 10.7 9 Norte 22 Nordeste 0 1006.7 -1.1 73
2020-03-26 11:00:00 8.9 23 Este 30 Este 0.6 1006.6 -1.3 86
2020-03-26 10:00:00 7.9 5 Nordeste 13 Norte 4.2 1007.9 -0.5 92
2020-03-26 09:00:00 8.5 8 Norte 11 Norte 0.3 1007.8 -1.3 87
2020-03-26 08:00:00 8.4 0 Calma 9 Este 0 1007.9 -1.9 81
2020-03-26 07:00:00 4.8 6 Este 8 Este 0 1008.4 -2 90
2020-03-26 06:00:00 5.4 6 Nordeste 11 Este 0 1009.1 -2.6 88
2020-03-26 05:00:00 5.7 6 Nordeste 11 Nordeste 0 1009.8 -2.5 85
2020-03-26 04:00:00 7.9 4 Este 21 Oeste 0 1010.4 -2.8 83
2020-03-26 03:00:00 7.2 10 Oeste 18 Oeste 0 1011.7 -2.4 77
2020-03-26 02:00:00 5.7 -- -- -- -- 0 1012.3 -2.4 83
2020-03-26 01:00:00 5.6 4 Este 8 Norte 0 1013.2 -1.8 81
2020-03-26 00:00:00 5.2 4 Norte 8 Norte 0 1014.1 -0.9 79
2020-03-25 23:00:00 4.9 4 Este 13 Este 0 1014.7 -0.1 81
2020-03-25 22:00:00 5.6 10 Este 13 Este 0 1015 0.4 76
2020-03-25 21:00:00 7.6 0 Calma 9 Este 0 1015 0.5 65
2020-03-25 20:00:00 8.8 9 Este 15 Este 0 1014.8 0.3 61
2020-03-25 19:00:00 10.8 13 Este 18 Este 0 1014.6 0.3 51
2020-03-25 18:00:00 12 12 Este 28 Este 0 1014.5 0.1 45
2020-03-25 17:00:00 12.6 21 Este 33 Este 0 1014.5 0 41
2020-03-25 16:00:00 13.8 19 Este 37 Este 0 1014.3 -0.7 39
2020-03-25 15:00:00 13.4 26 Este 37 Este 0 1014.4 -1 41
2020-03-25 14:00:00 14.1 24 Este 42 Este 0 1014.5 -1.4 35
2020-03-25 13:00:00 13.8 22 Nordeste 37 Este 0 1015 -- 38
2020-03-25 12:00:00 -- -- -- -- -- -- -- -- --
2020-03-25 11:00:00 -- -- -- -- -- -- -- -- --
2020-03-25 10:00:00 -- -- -- -- -- -- -- -- --
2020-03-25 09:00:00 -- -- -- -- -- -- -- -- --
2020-03-25 08:00:00 -- -- -- -- -- -- -- -- --
2020-03-25 07:00:00 -- -- -- -- -- -- -- -- --
2020-03-25 06:00:00 -- -- -- -- -- -- -- -- --
2020-03-25 05:00:00 -- -- -- -- -- -- -- -- --
2020-03-25 04:00:00 -- -- -- -- -- -- -- -- --
2020-03-25 03:00:00 -- -- -- -- -- -- -- -- --
2020-03-25 02:00:00 -- -- -- -- -- -- -- -- --
2020-03-25 01:00:00 -- -- -- -- -- -- -- -- --
2020-03-25 00:00:00 -- -- -- -- -- -- -- -- --
2020-03-24 23:00:00 -- -- -- -- -- -- -- -- --
2020-03-24 22:00:00 -- -- -- -- -- -- -- -- --
2020-03-24 21:00:00 -- -- -- -- -- -- -- -- --
2020-03-24 20:00:00 -- -- -- -- -- -- -- -- --
2020-03-24 19:00:00 -- -- -- -- -- -- -- -- --
2020-03-24 18:00:00 -- -- -- -- -- -- -- -- --
2020-03-24 17:00:00 -- -- -- -- -- -- -- -- --
2020-03-24 16:00:00 -- -- -- -- -- -- -- -- --
2020-03-24 15:00:00 -- -- -- -- -- -- -- -- --
2020-03-24 14:00:00 -- -- -- -- -- -- -- -- --
2020-03-24 13:00:00 -- -- -- -- -- -- -- -- --
2020-03-24 12:00:00 -- -- -- -- -- -- -- -- --
2020-03-24 11:00:00 -- -- -- -- -- -- -- -- --
2020-03-24 10:00:00 -- -- -- -- -- -- -- -- --
2020-03-24 09:00:00 -- -- -- -- -- -- -- -- --
2020-03-24 08:00:00 -- -- -- -- -- -- -- -- --
2020-03-24 07:00:00 -- -- -- -- -- -- -- -- --
2020-03-24 06:00:00 -- -- -- -- -- -- -- -- --
2020-03-24 05:00:00 -- -- -- -- -- -- -- -- --
2020-03-24 04:00:00 -- -- -- -- -- -- -- -- --
2020-03-24 03:00:00 -- -- -- -- -- -- -- -- --
2020-03-24 02:00:00 -- -- -- -- -- -- -- -- --
2020-03-24 01:00:00 -- -- -- -- -- -- -- -- --
2020-03-24 00:00:00 -- -- -- -- -- -- -- -- --
2020-03-23 23:00:00 -- -- -- -- -- -- -- -- --
2020-03-23 22:00:00 -- -- -- -- -- -- -- -- --
2020-03-23 21:00:00 -- -- -- -- -- -- -- -- --
2020-03-23 20:00:00 -- -- -- -- -- -- -- -- --
2020-03-23 19:00:00 -- -- -- -- -- -- -- -- --
2020-03-23 18:00:00 -- -- -- -- -- -- -- -- --
2020-03-23 17:00:00 -- -- -- -- -- -- -- -- --
2020-03-23 16:00:00 19.4 21 Este 30 Sudeste 0 1015.8 -1.2 53
2020-03-23 15:00:00 18.8 19 Este 32 Este 0 1016 -1.3 57
2020-03-23 14:00:00 19.1 18 Este 30 Este 0 1016.3 -0.8 53
2020-03-23 13:00:00 18.2 15 Este 26 Este 0 1017 -0.2 56
2020-03-23 12:00:00 18.1 18 Este 30 Este 0 1017.3 0.3 58
2020-03-23 11:00:00 17.1 18 Este 28 Este 0 1017.1 0.5 68
2020-03-23 10:00:00 16 14 Este 24 Este 0 1017.2 1 79
2020-03-23 09:00:00 14 10 Nordeste 21 Este 0 1017 1.4 91
2020-03-23 08:00:00 10.7 6 Este -- -- 0 1016.6 1.4 97
2020-03-23 07:00:00 9.1 7 Este 9 Este 0 1016.2 1.2 97
2020-03-23 06:00:00 9.2 5 Este 8 Este 0 1015.6 0.5 97
2020-03-23 05:00:00 9.8 5 Este 13 Este 0 1015.2 0.2 96
2020-03-23 04:00:00 10.1 9 Este 15 Este 0 1015 -0.2 96
2020-03-23 03:00:00 10.2 6 Este 9 Este 0 1015.1 -0.1 96
2020-03-23 02:00:00 10 6 Este 11 Este 0 1015 0 96
2020-03-23 01:00:00 10.8 8 Este 11 Este 0 1015.2 0.5 96
2020-03-23 00:00:00 10.9 8 Este 13 Este 0 1015.2 0.9 96
2020-03-22 23:00:00 11.2 9 Este 13 Este 0 1015 1.2 95
2020-03-22 22:00:00 11.7 8 Este 11 Este 0 1014.7 1.8 95
2020-03-22 21:00:00 13.3 9 Este 13 Este 0 1014.3 2.1 92
2020-03-22 20:00:00 14.1 11 Nordeste 21 Sur 0 1013.8 2.2 86
2020-03-22 19:00:00 15.9 16 Sudoeste 26 Sudoeste 0 1012.9 1.3 80
2020-03-22 18:00:00 16.1 11 Este 21 Este 0 1012.2 0.6 77
2020-03-22 17:00:00 16.6 10 Este 21 Nordeste 0 1011.6 -0.4 76
2020-03-22 16:00:00 18 19 Sudoeste 26 Sudoeste 0 1011.6 -0.7 69
2020-03-22 15:00:00 18.6 5 Oeste 11 Sudoeste 0 1011.6 -1 61
2020-03-22 14:00:00 15.7 5 Nordeste 15 Nordeste 0 1012 0.6 71
2020-03-22 13:00:00 14.2 9 Norte 18 Nordeste 0.3 1012.3 0.8 89
2020-03-22 12:00:00 12.7 5 Norte 26 Nordeste 9.1 1012.6 1.7 89
2020-03-22 11:00:00 16.4 14 Este 18 Nordeste 0 1011.4 0.9 77
2020-03-22 10:00:00 15.7 11 Este 21 Este 0 1011.5 1 82
2020-03-22 09:00:00 14.5 11 Este 17 Este 0 1010.9 0.5 82
2020-03-22 08:00:00 11.1 5 Este 8 Este 0 1010.5 0.2 92
2020-03-22 07:00:00 10.1 6 Este 9 Este 0 1010.5 0.1 94
2020-03-22 06:00:00 10.1 -- -- -- -- 0 1010.4 -0.4 93
2020-03-22 05:00:00 10.4 4 Norte -- -- 0 1010.3 -1 95
2020-03-22 04:00:00 10.5 6 Este 9 Este 0 1010.4 -1.3 93
2020-03-22 03:00:00 11.6 3 Norte 8 Este 0 1010.8 -1.1 91
2020-03-22 02:00:00 12.9 -- -- -- -- 0 1011.3 -0.8 92
2020-03-22 01:00:00 13.4 2 Sudoeste 9 Sudeste 0 1011.7 -0.4 89
2020-03-22 00:00:00 13.3 6 Sur 9 Sur 0 1011.9 0 90
2020-03-21 23:00:00 13.4 0 Calma 9 Este 0 1012.1 0.5 89
2020-03-21 22:00:00 14 8 Este 9 Este 0 1012.1 1.1 86
2020-03-21 21:00:00 14.3 8 Este 15 Este 0 1011.9 1.3 85
2020-03-21 20:00:00 14.9 9 Este 21 Este 0.1 1011.6 1.1 82
2020-03-21 19:00:00 15.4 10 Oeste 17 Oeste 0 1011 0.2 84
2020-03-21 18:00:00 16 13 Oeste 17 Oeste 0 1010.6 -0.6 80
2020-03-21 17:00:00 15.9 12 Oeste 18 Sudoeste 0 1010.5 -0.7 82
2020-03-21 16:00:00 15.8 17 Oeste 22 Sudoeste 0 1010.8 -0.9 80
2020-03-21 15:00:00 17.5 8 Oeste 26 Este 0 1011.2 -0.8 68
2020-03-21 14:00:00 18.8 18 Este 28 Este 0 1011.2 -1.1 58
2020-03-21 13:00:00 18.3 21 Nordeste 30 Este 0 1011.7 -0.9 58
2020-03-21 12:00:00 18.3 23 Este 32 Este 0 1012 -0.7 62
2020-03-21 11:00:00 17.2 24 Nordeste 32 Nordeste 0 1012.3 -0.6 67
2020-03-21 10:00:00 16.1 23 Nordeste 30 Nordeste 0 1012.6 -0.4 74
2020-03-21 09:00:00 12.7 3 Norte 5 Noroeste 0 1012.7 -0.5 84
2020-03-21 08:00:00 10 4 Norte 9 Noroeste 0 1012.9 -0.2 89
2020-03-21 07:00:00 9 4 Norte 5 Norte 0 1013 -0.2 92
2020-03-21 06:00:00 8.6 4 Norte 8 Norte 0 1013.2 -0.7 94
2020-03-21 05:00:00 8.7 0 Calma 5 Sudeste 0 1013.1 -1.5 92
2020-03-21 04:00:00 9.9 0 Calma 9 Este 0 1013.2 -1.9 93
2020-03-21 03:00:00 9.4 6 Este 8 Este 0 1013.9 -1.7 90
2020-03-21 02:00:00 11 4 Este -- -- -- 1014.6 -1.3 90
2020-03-21 01:00:00 10.8 3 Este 8 Este 0 1015.1 -0.7 90
2020-03-21 00:00:00 11.4 5 Este 22 Este 0 1015.6 -0.4 87
2020-03-20 23:00:00 12.9 16 Este 22 Nordeste 0 1015.9 -0.4 83
2020-03-20 22:00:00 13.4 14 Nordeste 33 Nordeste 0 1015.8 -0.4 80
2020-03-20 21:00:00 13.5 22 Este 30 Este 0 1016 -0.2 82
2020-03-20 20:00:00 13.7 14 Nordeste 24 Nordeste 0 1016.3 0 80
2020-03-20 19:00:00 15.2 17 Nordeste 30 Nordeste 0 1016.2 -0.2 72
2020-03-20 18:00:00 16.2 19 Este 33 Nordeste 0 1016.2 -0.5 63
2020-03-20 17:00:00 17.3 23 Nordeste 37 Nordeste 0 1016.3 -0.6 56
2020-03-20 16:00:00 17.7 27 Nordeste 39 Nordeste 0 1016.4 -1.3 54
2020-03-20 15:00:00 18.1 24 Nordeste 46 Este 0 1016.7 -0.9 52
2020-03-20 14:00:00 19.2 21 Este 33 Nordeste 0 1016.9 -1.1 43
2020-03-20 13:00:00 18 23 Nordeste 37 Este 0 1017.7 -0.4 52
2020-03-20 12:00:00 18.1 26 Este 41 Este 0 1017.6 -0.9 51
2020-03-20 11:00:00 16.5 28 Este 35 Este 0 1018 -0.4 60
2020-03-20 10:00:00 15.6 23 Este 39 Este 0 1018.1 -0.3 69
2020-03-20 09:00:00 14.3 16 Este 26 Este 0 1018.5 0.3 77
2020-03-20 08:00:00 9.8 10 Este 13 Este 0 1018.4 0.1 94
2020-03-20 07:00:00 8.3 3 Este 9 Este 0 1018.4 0 96
2020-03-20 06:00:00 8.8 4 Sudeste 8 Sudeste 0 1018.2 -0.7 96
2020-03-20 05:00:00 8 3 Este 5 Nordeste 0 1018.3 -1.2 97
2020-03-20 04:00:00 7.7 5 Este 8 Este 0 1018.4 -1.5 96
2020-03-20 03:00:00 8.1 5 Nordeste 8 Este 0 1018.9 -1.5 96
2020-03-20 02:00:00 8.4 6 Este 8 Este 0 1019.5 -1.2 95
2020-03-20 01:00:00 8.4 5 Este 9 Este 0 1019.9 -0.7 93
2020-03-20 00:00:00 9.2 6 Este 9 Este 0 1020.4 -0.1 92
2020-03-19 23:00:00 9.8 9 Este 15 Nordeste 0 1020.7 0.3 89
2020-03-19 22:00:00 11.1 12 Nordeste 15 Este 0 1020.6 0.6 88
2020-03-19 21:00:00 11.6 12 Este 17 Este 0 1020.5 0.7 85
2020-03-19 20:00:00 13.1 13 Este 22 Nordeste 0 1020.4 0.4 79
2020-03-19 19:00:00 14.8 15 Este 24 Este 0 1020 -0.5 68
2020-03-19 18:00:00 16.2 15 Este 24 Este 0 1019.8 -1 61
2020-03-19 17:00:00 17.4 12 Este 26 Este 0 1020 -1.4 54
2020-03-19 16:00:00 17.6 15 Este 24 Este 0 1020.5 -1.6 55
2020-03-19 15:00:00 18.2 5 Oeste 24 Nordeste 0 1020.8 -1.8 57
2020-03-19 14:00:00 18.6 14 Este 26 Este 0 1021.4 -1.9 45
2020-03-19 13:00:00 18.8 14 Este 26 Este 0 1022.1 -1.1 45
2020-03-19 12:00:00 17.7 15 Nordeste 28 Este 0 1022.6 -0.6 50
2020-03-19 11:00:00 17 16 Este 33 Este 0 1023.3 0.5 62
2020-03-19 10:00:00 15.4 19 Este 28 Este 0 1023.2 0.4 73
2020-03-19 09:00:00 13.4 12 Este 15 Este 0 1023.2 0.6 86
2020-03-19 08:00:00 11 8 Nordeste 13 Nordeste 0 1022.8 0 94
2020-03-19 07:00:00 10 8 Nordeste 9 Nordeste 0 1022.8 0 96
2020-03-19 06:00:00 9.8 0 Calma 8 Nordeste 0 1022.6 -0.8 94
2020-03-19 05:00:00 10 2 Nordeste 8 Nordeste 0 1022.8 -1.2 94
2020-03-19 04:00:00 9.9 8 Este 13 Este 0 1022.8 -1.4 92
2020-03-19 03:00:00 10.4 4 Este 8 Norte 0 1023.4 -1 90
2020-03-19 02:00:00 10.8 6 Norte -- -- -- 1024 -0.8 92
2020-03-19 01:00:00 11.2 3 Norte 11 Norte 0 1024.2 -0.7 92
2020-03-19 00:00:00 11.5 7 Norte 9 Norte 0 1024.4 -0.4 94
2020-03-18 23:00:00 11.7 3 Nordeste 9 Este 0 1024.8 0.3 94
2020-03-18 22:00:00 12.6 6 Este 13 Este 0 1024.9 0.9 92
2020-03-18 21:00:00 13.5 12 Este 21 Este 0 1024.8 1.1 91
2020-03-18 20:00:00 14.2 10 Nordeste 28 Este 0 1024.5 1.1 86
2020-03-18 19:00:00 15.1 20 Nordeste 30 Nordeste 0 1024 0.4 78
2020-03-18 18:00:00 16 23 Nordeste 32 Nordeste 0 1023.7 -0.2 72
2020-03-18 17:00:00 17 24 Nordeste 33 Este 0 1023.4 -1 68
2020-03-18 16:00:00 17.8 22 Nordeste 35 Nordeste 0 1023.6 -1.6 67
2020-03-18 15:00:00 17.9 21 Nordeste 30 Este 0 1023.9 -1.8 65
2020-03-18 14:00:00 18.3 21 Nordeste 32 Nordeste 0 1024.4 -1.4 65
2020-03-18 13:00:00 18.1 22 Nordeste 33 Este 0 1025.2 -0.6 66
2020-03-18 12:00:00 17.3 23 Nordeste 33 Nordeste 0 1025.7 0 68
2020-03-18 11:00:00 16.9 25 Nordeste 35 Nordeste 0 1025.8 0.3 69
2020-03-18 10:00:00 15.9 22 Nordeste 37 Nordeste 0 1025.8 0.3 76
2020-03-18 09:00:00 14.8 17 Nordeste 24 Nordeste 0 1025.7 0.2 83
2020-03-18 08:00:00 13 7 Este 13 Nordeste 0 1025.5 0.1 88
2020-03-18 07:00:00 13 10 Nordeste 18 Nordeste 0 1025.5 0.1 87
2020-03-18 06:00:00 13.4 11 Nordeste 21 Nordeste 0 1025.5 -0.4 84
2020-03-18 05:00:00 13.7 14 Nordeste 22 Nordeste 0 1025.4 -0.7 83
2020-03-18 04:00:00 13.6 14 Nordeste 21 Nordeste 0 1025.4 -0.6 85
2020-03-18 03:00:00 13.4 12 Nordeste 17 Nordeste 0 1025.9 -0.4 84
2020-03-18 02:00:00 13.8 8 Nordeste -- -- -- 1026.1 -0.2 83
2020-03-18 01:00:00 14.6 15 Nordeste 39 Nordeste 0 1026 -0.2 78
2020-03-18 00:00:00 14.8 21 Nordeste 33 Nordeste 0 1026.3 0.8 75
2020-03-17 23:00:00 14.8 22 Nordeste 37 Nordeste 0 1026.3 1.3 78
2020-03-17 22:00:00 15 26 Nordeste 37 Nordeste 0 1026.2 1.6 77
2020-03-17 21:00:00 15 24 Nordeste 41 Nordeste 0 1025.5 1.2 77
2020-03-17 20:00:00 15.1 25 Nordeste 41 Este 0 1025 1 77
2020-03-17 19:00:00 15.5 26 Este -- -- -- 1024.6 0.8 74
2020-03-17 18:00:00 16.1 22 Este 42 Este 0 1024.3 0.7 70
2020-03-17 17:00:00 16.7 31 Este 48 Este 0 1024 0.3 66
2020-03-17 16:00:00 17.6 33 Este 50 Este 0 1023.8 -0.2 65
2020-03-17 15:00:00 17.6 36 Este 48 Este 0 1023.6 -0.6 65
2020-03-17 14:00:00 17.9 29 Este 50 Este 0 1023.7 -0.4 69
2020-03-17 13:00:00 17 32 Este 46 Este 0 1024 0.4 75
2020-03-17 12:00:00 16.5 24 Este 41 Este 0 1024.2 1.1 79
2020-03-17 11:00:00 16.7 25 Este 37 Este 0 1024.1 1.5 79
2020-03-17 10:00:00 16.2 25 Este 32 Este 0 1023.6 2 82
2020-03-17 09:00:00 15.7 20 Nordeste 30 Este 0 1023.1 3.3 86
2020-03-17 08:00:00 15.7 16 Este 37 Este 0 1022.6 3.1 87
2020-03-17 07:00:00 15.5 27 Este 45 Este 0 1021.6 1.1 89
2020-03-17 06:00:00 15.5 22 Nordeste 37 Este 0 1019.8 -0.4 88
2020-03-17 05:00:00 15.5 22 Nordeste 35 Nordeste 0 1019.5 -0.7 89
2020-03-17 04:00:00 15.5 15 Este 21 Nordeste 0 1020.5 0.7 88
2020-03-17 03:00:00 15.9 15 Nordeste 26 Nordeste 0 1020.2 0.4 85
2020-03-17 02:00:00 15.8 16 Nordeste -- -- -- 1020.2 1 86
2020-03-17 01:00:00 15.7 17 Nordeste 26 Este 0 1019.8 1.3 86
2020-03-17 00:00:00 15.6 14 Este 21 Nordeste 0 1019.8 2.3 87
2020-03-16 23:00:00 15.6 15 Este 26 Este 0.1 1019.2 2.5 88
2020-03-16 22:00:00 16 14 Este 24 Este 0 1018.5 2.7 84
2020-03-16 21:00:00 16.1 15 Este 26 Este 0 1017.5 2.6 84
2020-03-16 20:00:00 16.7 15 Este 28 Sudeste 0 1016.7 2.4 79
2020-03-16 19:00:00 17 17 Sudeste 24 Este 0 1015.8 2.1 78
2020-03-16 18:00:00 17.5 19 Sudeste 30 Sudeste 0 1014.9 1.3 75
2020-03-16 17:00:00 18.1 20 Sudeste 33 Sudeste 0 1014.3 0.9 73
2020-03-16 16:00:00 18.9 21 Sudeste 35 Sudeste 0 1013.7 0 69
2020-03-16 15:00:00 19.3 22 Sudeste 35 Sudeste 0 1013.6 -0.2 67
2020-03-16 14:00:00 19.4 19 Este 35 Este 0 1013.4 -0.3 68
2020-03-16 13:00:00 18.1 22 Este 45 Sudeste 0 1013.7 0.1 73
2020-03-16 12:00:00 17.4 23 Este 33 Este 0 1013.8 0.6 78
2020-03-16 11:00:00 15.8 17 Este 32 Nordeste 0 1013.7 1 88
2020-03-16 10:00:00 15.1 23 Este 30 Este 0.1 1013.6 1.3 88
2020-03-16 09:00:00 15.2 15 Nordeste 26 Este 0 1013.2 0.6 84
2020-03-16 08:00:00 14.3 16 Este 26 Nordeste 0.1 1012.7 0.2 87
2020-03-16 07:00:00 13.8 13 Este 26 Este 0 1012.3 -0.7 86
2020-03-16 06:00:00 12.4 10 Este 17 Este 0 1012.6 -0.9 88
2020-03-16 05:00:00 11.3 11 Este 17 Este 0 1012.5 -1.1 90
2020-03-16 04:00:00 10.8 10 Este 18 Este 0 1013 -1.6 91
2020-03-16 03:00:00 11.9 8 Nordeste 21 Nordeste 0 1013.5 -2.5 86
2020-03-16 02:00:00 12.2 11 Nordeste -- -- -- 1013.6 -3.1 86
2020-03-16 01:00:00 11.4 13 Nordeste 18 Nordeste 0 1014.6 -1.8 89
2020-03-16 00:00:00 11 9 Este 17 Nordeste 0 1016 -0.2 90
2020-03-15 23:00:00 10.7 9 Este 13 Nordeste 0 1016.7 1.1 88
2020-03-15 22:00:00 11.9 11 Nordeste 17 Nordeste 0 1016.4 1 87
2020-03-15 21:00:00 12.7 11 Nordeste 17 Nordeste 0 1016.2 1.1 82
2020-03-15 20:00:00 13.2 10 Nordeste 17 Este 0 1015.6 0.2 75
2020-03-15 19:00:00 15.6 11 Este 21 Este 0 1015.4 -0.8 66
2020-03-15 18:00:00 18.4 15 Sudeste 24 Sudeste 0 1015.1 -1.6 56
2020-03-15 17:00:00 19.6 4 Nordeste 24 Noroeste 0 1015.4 -2 56
2020-03-15 16:00:00 18 14 Noroeste 24 Oeste 0 1016.2 -2.2 67
2020-03-15 15:00:00 19.5 11 Nordeste 30 Sudoeste 0 1016.7 -2.5 59
2020-03-15 14:00:00 19.8 9 Sur 28 Sudoeste 0 1017.4 -2.1 53
2020-03-15 13:00:00 18.2 14 Sudoeste 24 Sudoeste 0 1018.4 -1.3 63
2020-03-15 12:00:00 17.8 15 Sudoeste 22 Sudoeste 0 1019.2 -0.7 63
2020-03-15 11:00:00 17.4 5 Oeste 11 Oeste 0 1019.5 -0.3 61
2020-03-15 10:00:00 16.3 4 Sudeste 9 Este 0 1019.7 0.1 67
2020-03-15 09:00:00 12.5 3 Norte 8 Norte 0 1019.9 0.6 85
2020-03-15 08:00:00 7.8 5 Norte 9 Norte 0 1019.8 0.5 95
2020-03-15 07:00:00 6.2 5 Norte 9 Nordeste 0 1019.6 0.2 96
2020-03-15 06:00:00 7.4 5 Nordeste 8 Este 0 1019.3 -0.8 97
2020-03-15 05:00:00 6.5 5 Nordeste -- -- 0 1019.3 -1.3 95
2020-03-15 04:00:00 6.8 4 Nordeste 9 Este 0 1019.4 -1.5 95
2020-03-15 03:00:00 7.3 6 Este 9 Este 0 1020.1 -1 94
2020-03-15 02:00:00 7.6 -- -- -- -- -- 1020.6 -0.5 93
2020-03-15 01:00:00 8.1 -- -- -- -- 0 1020.9 0.1 92
2020-03-15 00:00:00 9 4 Norte 8 Norte 0 1021.1 0.5 91
2020-03-14 23:00:00 9.6 3 Nordeste 8 Norte 0 1021.1 0.9 91
2020-03-14 22:00:00 10.6 4 Este 8 Este 0 1020.8 0.9 89
2020-03-14 21:00:00 12.4 5 Este 11 Sur 0 1020.6 1 81
2020-03-14 20:00:00 14.4 8 Sur 18 Sudoeste 0 1020.2 0.9 75
2020-03-14 19:00:00 15.2 10 Sudoeste 18 Sudoeste 0 1019.9 0.5 70
2020-03-14 18:00:00 16.5 12 Sudoeste 21 Sudoeste 0 1019.6 0.1 62
2020-03-14 17:00:00 16.8 16 Sudoeste 24 Sur 0 1019.3 -0.7 61
2020-03-14 16:00:00 18.2 17 Sudoeste 30 Sudoeste 0 1019.4 -0.9 56
2020-03-14 15:00:00 17.8 22 Sudoeste 30 Sudoeste 0 1019.5 -1.2 61
2020-03-14 14:00:00 18.4 24 Sudoeste 32 Sudoeste 0 1020 -1 58
2020-03-14 13:00:00 19.8 6 Sudoeste 15 Sudoeste 0 1020.3 -0.6 50
2020-03-14 12:00:00 18.3 5 Este 22 Este 0 1020.7 0.4 52
2020-03-14 11:00:00 16.7 17 Este 30 Nordeste 0 1021 1.5 57
2020-03-14 10:00:00 15.6 22 Este 30 Este 0 1020.9 1.8 66
2020-03-14 09:00:00 13.6 4 Nordeste 8 Este 0 1020.3 1.6 77
2020-03-14 08:00:00 10.4 2 Norte 8 Norte 0 1019.5 1.3 89
2020-03-14 07:00:00 9.7 6 Norte 11 Norte 0 1019.1 0.9 89
2020-03-14 06:00:00 10.2 8 Norte 9 Norte 0 1018.7 0.6 88
2020-03-14 05:00:00 11.4 0 Calma 15 Sudeste 0 1018.2 -1.2 83
2020-03-14 04:00:00 11.9 9 Este 24 Noroeste 0 1018.2 -0.6 75
2020-03-14 03:00:00 11.6 13 Este 17 Este 0.5 1018.1 -0.6 82
2020-03-14 02:00:00 12.1 5 Nordeste 15 Nordeste 0.4 1019.4 0.6 74
2020-03-14 01:00:00 12.6 4 Norte 8 Norte 0 1018.8 0.3 60
2020-03-14 00:00:00 12 5 Este 9 Este 0 1018.7 0.4 72
2020-03-13 23:00:00 12.4 9 Este 17 Este 0 1018.8 1.1 78
2020-03-13 22:00:00 12.6 11 Nordeste 21 Nordeste 0 1018.5 1.4 81
2020-03-13 21:00:00 13.2 11 Nordeste 24 Este 0 1018.3 1.3 78
2020-03-13 20:00:00 14 17 Este 32 Este 0 1017.7 0.4 75
2020-03-13 19:00:00 15.1 21 Este 35 Este 0 1017.1 -0.3 70
2020-03-13 18:00:00 17.3 24 Este 39 Este 0 1017 -0.5 56
2020-03-13 17:00:00 18.2 30 Este 48 Este 0 1017.3 -0.3 48
2020-03-13 16:00:00 19.1 34 Este 50 Este 0 1017.4 -0.8 47
2020-03-13 15:00:00 19.6 35 Este 54 Este 0 1017.5 -1.1 49
2020-03-13 14:00:00 20 37 Este 58 Este 0 1017.6 -1.4 47
2020-03-13 13:00:00 19 48 Este 63 Nordeste 0 1018.2 -0.3 52
2020-03-13 12:00:00 19 39 Este 59 Nordeste 0 1018.6 0.4 60
2020-03-13 11:00:00 18.2 36 Este 55 Este 0 1019 1.2 66
2020-03-13 10:00:00 16.8 40 Este 55 Este 0 1018.5 0.7 69
2020-03-13 09:00:00 15.4 35 Este 46 Este 0 1018.2 0.7 77
2020-03-13 08:00:00 14.5 30 Este 45 Este 0 1017.8 0.6 80
2020-03-13 07:00:00 14.1 30 Este 45 Este 0 1017.8 0.9 79
2020-03-13 06:00:00 13.6 26 Este 37 Nordeste 0 1017.5 0.4 77
2020-03-13 05:00:00 11.8 18 Este 28 Este 0 1017.2 -0.4 89
2020-03-13 04:00:00 8.9 5 Norte 9 Noroeste 0 1016.9 -1.2 75
2020-03-13 03:00:00 8.5 7 Noroeste 11 Noroeste 0 1017.1 -0.9 78
2020-03-13 02:00:00 8.8 6 Este 9 Norte 0 1017.6 -0.5 79
2020-03-13 01:00:00 9.7 -- -- -- -- 0 1018.1 -0.2 73
2020-03-13 00:00:00 10 4 Nordeste 8 Nordeste 0 1018 -0.3 75
2020-03-12 23:00:00 10.9 4 Este 8 Este 0 1018.1 -0.2 71
2020-03-12 22:00:00 11.4 4 Norte 9 Nordeste 0 1018.3 0.3 73
2020-03-12 21:00:00 12.5 5 Este 8 Este 0 1018.3 0.3 70
2020-03-12 20:00:00 15 0 Calma 8 Sudoeste 0 1018.3 0.4 70
2020-03-12 19:00:00 17 3 Oeste 17 Oeste 0 1018 -0.6 59
2020-03-12 18:00:00 19.5 11 Sudoeste 15 Oeste 0 1018 -1 39
2020-03-12 17:00:00 20.6 12 Oeste 22 Oeste 0 1017.9 -2.2 35
2020-03-12 16:00:00 20.6 18 Sudoeste 26 Sudoeste 0 1018.6 -2.3 37
2020-03-12 15:00:00 20.9 17 Sudoeste 24 Sudoeste 0 1019 -2.5 37
2020-03-12 14:00:00 20.8 14 Sudoeste 22 Sudoeste 0 1020.1 -1.9 36
2020-03-12 13:00:00 20.2 15 Sudoeste 21 Sudoeste 0 1020.9 -0.9 38
2020-03-12 12:00:00 20.1 11 Sudoeste 17 Oeste 0 1021.5 -0.3 41
2020-03-12 11:00:00 19.1 10 Oeste 15 Oeste 0 1022 0.1 54
2020-03-12 10:00:00 17.1 3 Sudeste 5 Norte 0 1021.8 0.1 72
2020-03-12 09:00:00 11.5 6 Nordeste 8 Nordeste 0 1021.8 0.6 93
2020-03-12 08:00:00 8.1 4 Nordeste 8 Nordeste 0 1021.9 0.7 98
2020-03-12 07:00:00 7.6 4 Este -- -- 0 1021.7 0.4 98
2020-03-12 06:00:00 8.8 0 Calma 5 Nordeste 0 1021.2 -0.6 98
2020-03-12 05:00:00 10.1 3 Nordeste 5 Nordeste 0 1021.2 -1.2 98
2020-03-12 04:00:00 11.6 4 Nordeste 8 Este 0 1021.3 -1.4 98
2020-03-12 03:00:00 12.6 3 Este 9 Nordeste 0 1021.8 -1.3 98
2020-03-12 02:00:00 13.1 4 Este 8 Nordeste 0 1022.4 -0.8 97
2020-03-12 01:00:00 13.5 4 Norte 5 Noroeste 0 1022.7 -0.6 96
2020-03-12 00:00:00 13.9 2 Norte 5 Noroeste 0 1023.1 0.2 96
2020-03-11 23:00:00 13.1 3 Norte 8 Este 0 1023.2 0.4 96
2020-03-11 22:00:00 11.6 6 Nordeste 8 Nordeste 0 1023.3 0.7 94
2020-03-11 21:00:00 12.7 4 Este 13 Sudoeste 0 1022.9 0.7 92
2020-03-11 20:00:00 15.1 9 Sudoeste 15 Sudoeste 0 1022.8 0.8 91
2020-03-11 19:00:00 15.7 10 Sudoeste 17 Sudoeste 0 1022.6 0.5 88
2020-03-11 18:00:00 17 14 Sudoeste 22 Sudoeste 0 1022.2 -0.2 79
2020-03-11 17:00:00 17.8 17 Sudoeste 30 Sur 0 1022 -1 75
2020-03-11 16:00:00 18.4 19 Sudoeste 26 Sudoeste 0 1022.1 -1.4 72
2020-03-11 15:00:00 18.7 19 Sur 30 Sudoeste 0 1022.4 -1.6 72
2020-03-11 14:00:00 18.4 19 Sudoeste 28 Sudoeste 0 1023 -0.8 71
2020-03-11 13:00:00 18.4 17 Sudoeste 24 Sur 0 1023.5 -0.2 70
2020-03-11 12:00:00 18.2 13 Sudoeste 18 Sudoeste 0 1024 0.6 71
2020-03-11 11:00:00 17.6 10 Sudoeste 18 Sudoeste 0 1023.8 0.9 72
2020-03-11 10:00:00 16.9 6 Sudoeste 11 Sudoeste 0 1023.7 1.1 74
2020-03-11 09:00:00 12.1 4 Nordeste -- -- 0 1023.4 0.9 89
2020-03-11 08:00:00 7.5 4 Norte -- -- 0 1022.9 0.3 96
2020-03-11 07:00:00 6 4 Norte 5 Norte 0 1022.6 -0.1 97
2020-03-11 06:00:00 7.1 4 Nordeste 8 Norte 0 1022.5 -0.7 96
2020-03-11 05:00:00 7.2 5 Noroeste 8 Noroeste 0 1022.6 -1.4 96
2020-03-11 04:00:00 8.2 5 Este 8 Noroeste 0 1022.7 -1.2 95
2020-03-11 03:00:00 9.3 5 Norte 13 Sudoeste 0 1023.2 -1 94
2020-03-11 02:00:00 9.7 3 Sudoeste 13 Sudoeste 0 1024 -0.4 94
2020-03-11 01:00:00 11.8 10 Sudoeste 17 Sudoeste 0 1023.9 -0.6 93
2020-03-11 00:00:00 12.8 12 Sudoeste 17 Sudoeste 0 1024.2 -0.1 92
2020-03-10 23:00:00 13.1 13 Sudoeste 22 Sudoeste 0 1024.4 0.2 89
2020-03-10 22:00:00 13.7 13 Sudoeste 24 Oeste 0 1024.5 0.5 86
2020-03-10 21:00:00 14.1 18 Sudoeste 24 Oeste 0 1024.3 0.7 81
2020-03-10 20:00:00 14.2 18 Sudoeste 28 Sudoeste 0 1024.2 0.6 79
2020-03-10 19:00:00 14.4 19 Oeste 37 Sudoeste 0 1024 -0.3 77
2020-03-10 18:00:00 15.2 30 Sudoeste 39 Oeste 0 1023.6 -1 71
2020-03-10 17:00:00 15.4 31 Sudoeste 41 Sudoeste 0 1023.6 -1.3 71
2020-03-10 16:00:00 16.2 31 Sudoeste 41 Sudoeste 0 1024.3 -1 64
2020-03-10 15:00:00 16.1 30 Sudoeste 41 Sudoeste 0 1024.6 -1.1 62
2020-03-10 14:00:00 16.1 30 Sudoeste 39 Sudoeste 0 1024.9 -0.8 60
2020-03-10 13:00:00 15.6 27 Sudoeste 35 Sudoeste 0 1025.3 -0.3 59
2020-03-10 12:00:00 16.2 21 Sudoeste 32 Sudoeste 0 1025.7 0.7 59
2020-03-10 11:00:00 16.1 10 Sudoeste 17 Sudoeste 0 1025.7 1.4 56
2020-03-10 10:00:00 13.3 4 Norte 5 Noroeste 0 1025.6 1.8 70
2020-03-10 09:00:00 10.6 2 Nordeste 8 Nordeste 0 1025 1.7 80
2020-03-10 08:00:00 8.6 5 Nordeste 9 Norte 0 1024.3 1.3 86
2020-03-10 07:00:00 7.4 3 Norte 13 Norte 0 1023.8 1.5 91
2020-03-10 06:00:00 6.6 3 Nordeste 9 Este 0 1023.3 0.7 91
2020-03-10 05:00:00 6.2 3 Nordeste 11 Nordeste 0 1023 0.3 92
2020-03-10 04:00:00 6.7 3 Norte 9 Norte 0 1022.3 -0.1 91
2020-03-10 03:00:00 8 4 Norte 8 Este 0 1022.6 0 90
2020-03-10 02:00:00 8.8 8 Este 13 Nordeste 0 1022.7 0.8 86
2020-03-10 01:00:00 8.7 9 Nordeste 18 Este 0 1022.4 0.7 88
2020-03-10 00:00:00 9.4 14 Este 21 Este 0 1022.6 2 86
2020-03-09 23:00:00 9.8 13 Este 21 Sudeste 0 1021.9 1.7 85
2020-03-09 22:00:00 10.9 12 Este 21 Este 0 1021.7 2.1 73
2020-03-09 21:00:00 11.5 3 Nordeste 13 Oeste 0 1020.6 1.2 65
2020-03-09 20:00:00 13.4 9 Oeste 15 Norte 0 1020.2 1 59
2020-03-09 19:00:00 14.3 9 Noroeste 33 Noroeste 0 1019.6 0.3 53
2020-03-09 18:00:00 16.6 13 Noroeste 26 Noroeste 0 1019.4 0 44
2020-03-09 17:00:00 16.1 14 Norte 35 Noroeste 0 1019.2 -0.5 42
2020-03-09 16:00:00 16.4 18 Noroeste 37 Noroeste 0 1019.3 -0.7 43
2020-03-09 15:00:00 17 22 Noroeste 33 Noroeste 0 1019.4 -1.1 44
2020-03-09 14:00:00 17 22 Norte 37 Noroeste 0 1019.7 -0.4 45
2020-03-09 13:00:00 17.5 27 Noroeste 45 Noroeste 0 1020 0.8 43
2020-03-09 12:00:00 16.8 24 Noroeste 39 Noroeste 0 1020.5 1 45
2020-03-09 11:00:00 16.2 15 Norte 46 Noroeste 0 1020.1 1.1 49
2020-03-09 10:00:00 16.8 34 Norte 50 Noroeste 0 1019.2 0.2 49
2020-03-09 09:00:00 15.7 28 Noroeste 59 Noroeste 0 1019.5 0.4 56
2020-03-09 08:00:00 14.9 26 Noroeste 48 Noroeste 0 1019 0 58
2020-03-09 07:00:00 11.6 7 Sudoeste 24 Oeste 0 1019 -0.2 74
2020-03-09 06:00:00 6.6 4 Nordeste 15 Oeste 0 1019.1 -0.7 96
2020-03-09 05:00:00 6.1 3 Este 8 Nordeste 0 1019 -1.2 94
2020-03-09 04:00:00 6.8 8 Norte -- -- 0 1019.2 -1.1 94
2020-03-09 03:00:00 7.9 4 Norte 9 Norte 0 1019.8 -1 90
2020-03-09 02:00:00 8.4 8 Noroeste 9 Norte 0 1020.2 -1.1 91
2020-03-09 01:00:00 9.4 2 Norte 5 Norte 0 1020.3 -1.2 89
2020-03-09 00:00:00 10 4 Norte 8 Nordeste 0 1020.8 -0.8 92